RYR91TE EGNM-EIDW
Flight info
| Callsign | RYR91TE |
|---|---|
| Flight time | 0h 41m |
| Altitude | 24000 |
| Route | NELSA DCT CROFT Y70 KOLID L70 PENIL L28 LELDO/N0385F280 M145 BAGSO BAGSO4L |
| Aircraft | B738/M-SDE3FGILRWY/SB1 |
Departure
| Time | 2026-05-06 15:24 |
|---|---|
| Airport | Leeds Bradford Airport (EGNM) |
Arrival
| Time | 2026-05-06 16:06 |
|---|---|
| Airport | Dublin Airport (EIDW) |
| Time | Latitude | Longitude | Altitude | Speed | Heading |
|---|---|---|---|---|---|
| 2026-05-06 14:49 | 53.86879 | -1.65760 | 664 ft | 0 kts | 1° |
| 2026-05-06 15:16 | 53.86862 | -1.65762 | 664 ft | 2 kts | 1° |
| 2026-05-06 15:16 | 53.86842 | -1.65768 | 664 ft | 4 kts | 38° |
| 2026-05-06 15:16 | 53.86823 | -1.65800 | 664 ft | 4 kts | 41° |
| 2026-05-06 15:17 | 53.86810 | -1.65815 | 664 ft | 0 kts | 2° |
| 2026-05-06 15:19 | 53.86813 | -1.65811 | 664 ft | 2 kts | 27° |
| 2026-05-06 15:19 | 53.86817 | -1.65758 | 664 ft | 9 kts | 90° |
| 2026-05-06 15:19 | 53.86816 | -1.65605 | 663 ft | 15 kts | 91° |
| 2026-05-06 15:20 | 53.86805 | -1.65434 | 660 ft | 13 kts | 125° |
| 2026-05-06 15:20 | 53.86720 | -1.65418 | 660 ft | 14 kts | 182° |
| 2026-05-06 15:20 | 53.86611 | -1.65428 | 663 ft | 16 kts | 183° |
| 2026-05-06 15:20 | 53.86499 | -1.65439 | 667 ft | 16 kts | 184° |
| 2026-05-06 15:21 | 53.86420 | -1.65447 | 672 ft | 0 kts | 183° |
| 2026-05-06 15:22 | 53.86401 | -1.65449 | 674 ft | 6 kts | 183° |
| 2026-05-06 15:22 | 53.86314 | -1.65457 | 676 ft | 18 kts | 183° |
| 2026-05-06 15:22 | 53.86191 | -1.65427 | 678 ft | 18 kts | 129° |
| 2026-05-06 15:22 | 53.86158 | -1.65353 | 680 ft | 7 kts | 145° |
| 2026-05-06 15:23 | 53.86075 | -1.65255 | 676 ft | 22 kts | 144° |
| 2026-05-06 15:23 | 53.85948 | -1.65069 | 668 ft | 26 kts | 137° |
| 2026-05-06 15:23 | 53.85874 | -1.64955 | 663 ft | 7 kts | 77° |
| 2026-05-06 15:23 | 53.85884 | -1.64959 | 662 ft | 3 kts | 306° |
| 2026-05-06 15:24 | 53.85920 | -1.65026 | 665 ft | 12 kts | 316° |
| 2026-05-06 15:24 | 53.86168 | -1.65407 | 679 ft | 90 kts | 318° |
| 2026-05-06 15:24 | 53.86841 | -1.66436 | 698 ft | 163 kts | 319° |
| 2026-05-06 15:24 | 53.87701 | -1.67786 | 1610 ft | 172 kts | 319° |
| 2026-05-06 15:25 | 53.88530 | -1.69281 | 2608 ft | 182 kts | 313° |
| 2026-05-06 15:25 | 53.89430 | -1.71036 | 3004 ft | 212 kts | 313° |
| 2026-05-06 15:25 | 53.90075 | -1.73343 | 3504 ft | 229 kts | 277° |
| 2026-05-06 15:25 | 53.89928 | -1.76181 | 3797 ft | 255 kts | 260° |
| 2026-05-06 15:26 | 53.89392 | -1.79136 | 4353 ft | 270 kts | 243° |
| 2026-05-06 15:26 | 53.88431 | -1.81856 | 5377 ft | 269 kts | 235° |
| 2026-05-06 15:26 | 53.87286 | -1.84363 | 6388 ft | 271 kts | 230° |
| 2026-05-06 15:26 | 53.86070 | -1.86803 | 6871 ft | 268 kts | 230° |
| 2026-05-06 15:27 | 53.84833 | -1.89279 | 7249 ft | 280 kts | 233° |
| 2026-05-06 15:27 | 53.84062 | -1.92247 | 8234 ft | 277 kts | 265° |
| 2026-05-06 15:27 | 53.84285 | -1.95430 | 9267 ft | 273 kts | 290° |
| 2026-05-06 15:27 | 53.85124 | -1.98308 | 10210 ft | 273 kts | 300° |
| 2026-05-06 15:28 | 53.86006 | -2.01260 | 10651 ft | 294 kts | 289° |
| 2026-05-06 15:28 | 53.86351 | -2.04825 | 10837 ft | 321 kts | 272° |
| 2026-05-06 15:28 | 53.86354 | -2.08728 | 11277 ft | 337 kts | 271° |
| 2026-05-06 15:28 | 53.86344 | -2.12747 | 11986 ft | 344 kts | 271° |
| 2026-05-06 15:29 | 53.86061 | -2.16776 | 12798 ft | 349 kts | 253° |
| 2026-05-06 15:29 | 53.84939 | -2.20437 | 13679 ft | 354 kts | 234° |
| 2026-05-06 15:29 | 53.83200 | -2.23429 | 14444 ft | 359 kts | 224° |
| 2026-05-06 15:29 | 53.81313 | -2.26241 | 15165 ft | 363 kts | 223° |
| 2026-05-06 15:30 | 53.79391 | -2.29053 | 15890 ft | 367 kts | 223° |
| 2026-05-06 15:30 | 53.77457 | -2.31890 | 16622 ft | 370 kts | 223° |
| 2026-05-06 15:30 | 53.75510 | -2.34769 | 17354 ft | 373 kts | 224° |
| 2026-05-06 15:30 | 53.73555 | -2.37679 | 18073 ft | 376 kts | 224° |
| 2026-05-06 15:31 | 53.71586 | -2.40620 | 18719 ft | 380 kts | 224° |
| 2026-05-06 15:31 | 53.69599 | -2.43591 | 19312 ft | 383 kts | 224° |
| 2026-05-06 15:31 | 53.67595 | -2.46583 | 19919 ft | 386 kts | 224° |
| 2026-05-06 15:32 | 53.63659 | -2.52821 | 21128 ft | 390 kts | 233° |
| 2026-05-06 15:32 | 53.62104 | -2.56562 | 21728 ft | 391 kts | 242° |
| 2026-05-06 15:32 | 53.60937 | -2.60693 | 22305 ft | 392 kts | 250° |
| 2026-05-06 15:32 | 53.59933 | -2.64974 | 22884 ft | 394 kts | 250° |
| 2026-05-06 15:33 | 53.58926 | -2.69220 | 23423 ft | 398 kts | 250° |
| 2026-05-06 15:33 | 53.58076 | -2.73721 | 23880 ft | 400 kts | 259° |
| 2026-05-06 15:33 | 53.57661 | -2.78355 | 24348 ft | 401 kts | 266° |
| 2026-05-06 15:33 | 53.57658 | -2.82990 | 24797 ft | 403 kts | 275° |
| 2026-05-06 15:34 | 53.57916 | -2.87693 | 25317 ft | 403 kts | 276° |
| 2026-05-06 15:34 | 53.58192 | -2.92370 | 25939 ft | 401 kts | 275° |
| 2026-05-06 15:34 | 53.58444 | -2.97027 | 26578 ft | 398 kts | 275° |
| 2026-05-06 15:34 | 53.58676 | -3.01667 | 27163 ft | 397 kts | 275° |
| 2026-05-06 15:35 | 53.58896 | -3.06290 | 27712 ft | 397 kts | 275° |
| 2026-05-06 15:35 | 53.59114 | -3.10933 | 28024 ft | 400 kts | 275° |
| 2026-05-06 15:35 | 53.59546 | -3.20215 | 28009 ft | 391 kts | 275° |
| 2026-05-06 15:36 | 53.59961 | -3.29269 | 28036 ft | 388 kts | 275° |
| 2026-05-06 15:36 | 53.60372 | -3.38351 | 28031 ft | 390 kts | 275° |
| 2026-05-06 15:37 | 53.60778 | -3.47472 | 28024 ft | 391 kts | 275° |
| 2026-05-06 15:37 | 53.61179 | -3.56599 | 28024 ft | 391 kts | 275° |
| 2026-05-06 15:38 | 53.61685 | -3.65686 | 28012 ft | 389 kts | 282° |
| 2026-05-06 15:38 | 53.63418 | -3.74271 | 28031 ft | 387 kts | 292° |
| 2026-05-06 15:39 | 53.65491 | -3.82644 | 28017 ft | 387 kts | 292° |
| 2026-05-06 15:39 | 53.67514 | -3.91050 | 28025 ft | 387 kts | 292° |
| 2026-05-06 15:40 | 53.69516 | -3.99484 | 28024 ft | 387 kts | 292° |
| 2026-05-06 15:40 | 53.71399 | -4.07960 | 27722 ft | 382 kts | 285° |
| 2026-05-06 15:41 | 53.71864 | -4.12323 | 27448 ft | 375 kts | 276° |
| 2026-05-06 15:41 | 53.72024 | -4.16677 | 27188 ft | 368 kts | 274° |
| 2026-05-06 15:41 | 53.72162 | -4.20969 | 26917 ft | 365 kts | 275° |
| 2026-05-06 15:41 | 53.72304 | -4.25241 | 26661 ft | 364 kts | 275° |
| 2026-05-06 15:42 | 53.72454 | -4.29512 | 26406 ft | 365 kts | 275° |
| 2026-05-06 15:42 | 53.72609 | -4.33780 | 26153 ft | 363 kts | 275° |
| 2026-05-06 15:42 | 53.72765 | -4.38024 | 25868 ft | 360 kts | 275° |
| 2026-05-06 15:42 | 53.72918 | -4.42218 | 25530 ft | 356 kts | 275° |
| 2026-05-06 15:43 | 53.73068 | -4.46379 | 25156 ft | 354 kts | 275° |
| 2026-05-06 15:43 | 53.73214 | -4.50510 | 24789 ft | 351 kts | 275° |
| 2026-05-06 15:43 | 53.73358 | -4.54613 | 24423 ft | 349 kts | 275° |
| 2026-05-06 15:43 | 53.73501 | -4.58693 | 24057 ft | 347 kts | 274° |
| 2026-05-06 15:44 | 53.73641 | -4.62753 | 23693 ft | 345 kts | 274° |
| 2026-05-06 15:44 | 53.73779 | -4.66787 | 23272 ft | 343 kts | 274° |
| 2026-05-06 15:44 | 53.73915 | -4.70800 | 22861 ft | 341 kts | 274° |
| 2026-05-06 15:44 | 53.74048 | -4.74732 | 22503 ft | 338 kts | 274° |
| 2026-05-06 15:45 | 53.74181 | -4.78732 | 22118 ft | 335 kts | 274° |
| 2026-05-06 15:45 | 53.74310 | -4.82646 | 21773 ft | 332 kts | 274° |
| 2026-05-06 15:45 | 53.74437 | -4.86533 | 21405 ft | 330 kts | 274° |
| 2026-05-06 15:45 | 53.74561 | -4.90341 | 21057 ft | 328 kts | 274° |
| 2026-05-06 15:46 | 53.74685 | -4.94173 | 20706 ft | 326 kts | 274° |
| 2026-05-06 15:46 | 53.74808 | -4.97977 | 20359 ft | 324 kts | 274° |
| 2026-05-06 15:46 | 53.74929 | -5.01763 | 20011 ft | 322 kts | 274° |
| 2026-05-06 15:46 | 53.75047 | -5.05522 | 19668 ft | 320 kts | 273° |
| 2026-05-06 15:47 | 53.75164 | -5.09264 | 19329 ft | 318 kts | 273° |
| 2026-05-06 15:47 | 53.75182 | -5.12992 | 18979 ft | 317 kts | 265° |
| 2026-05-06 15:47 | 53.74809 | -5.16638 | 18730 ft | 313 kts | 255° |
| 2026-05-06 15:47 | 53.74140 | -5.20127 | 18423 ft | 311 kts | 252° |
| 2026-05-06 15:48 | 53.73426 | -5.23572 | 18061 ft | 310 kts | 251° |
| 2026-05-06 15:48 | 53.72712 | -5.26998 | 17704 ft | 309 kts | 251° |
| 2026-05-06 15:48 | 53.72006 | -5.30406 | 17353 ft | 307 kts | 252° |
| 2026-05-06 15:48 | 53.71310 | -5.33794 | 17016 ft | 305 kts | 252° |
| 2026-05-06 15:49 | 53.70620 | -5.37167 | 16677 ft | 303 kts | 252° |
| 2026-05-06 15:49 | 53.69937 | -5.40516 | 16345 ft | 301 kts | 252° |
| 2026-05-06 15:49 | 53.69257 | -5.43845 | 16013 ft | 299 kts | 252° |
| 2026-05-06 15:49 | 53.68579 | -5.47160 | 15690 ft | 298 kts | 252° |
| 2026-05-06 15:50 | 53.67915 | -5.50457 | 15357 ft | 296 kts | 254° |
| 2026-05-06 15:50 | 53.67422 | -5.53775 | 15035 ft | 295 kts | 258° |
| 2026-05-06 15:50 | 53.67003 | -5.57149 | 14713 ft | 293 kts | 259° |
| 2026-05-06 15:50 | 53.66593 | -5.60512 | 14392 ft | 292 kts | 258° |
| 2026-05-06 15:51 | 53.66175 | -5.63858 | 14062 ft | 291 kts | 258° |
| 2026-05-06 15:51 | 53.65748 | -5.67190 | 13727 ft | 291 kts | 258° |
| 2026-05-06 15:51 | 53.65314 | -5.70511 | 13376 ft | 290 kts | 258° |
| 2026-05-06 15:51 | 53.64878 | -5.73817 | 13027 ft | 288 kts | 258° |
| 2026-05-06 15:52 | 53.64443 | -5.77107 | 12684 ft | 287 kts | 258° |
| 2026-05-06 15:52 | 53.64008 | -5.80383 | 12347 ft | 286 kts | 258° |
| 2026-05-06 15:52 | 53.63579 | -5.83649 | 12065 ft | 285 kts | 259° |
| 2026-05-06 15:52 | 53.63204 | -5.86902 | 11778 ft | 282 kts | 260° |
| 2026-05-06 15:53 | 53.62854 | -5.90148 | 11463 ft | 281 kts | 260° |
| 2026-05-06 15:53 | 53.62507 | -5.93382 | 11152 ft | 280 kts | 260° |
| 2026-05-06 15:53 | 53.62160 | -5.96600 | 10844 ft | 279 kts | 260° |
| 2026-05-06 15:53 | 53.61810 | -5.99810 | 10534 ft | 278 kts | 260° |
| 2026-05-06 15:54 | 53.61459 | -6.03010 | 10226 ft | 277 kts | 260° |
| 2026-05-06 15:54 | 53.61111 | -6.06155 | 10112 ft | 271 kts | 260° |
| 2026-05-06 15:54 | 53.60765 | -6.09272 | 9929 ft | 272 kts | 259° |
| 2026-05-06 15:54 | 53.60417 | -6.12390 | 9625 ft | 277 kts | 259° |
| 2026-05-06 15:55 | 53.60056 | -6.15619 | 9315 ft | 277 kts | 259° |
| 2026-05-06 15:55 | 53.59704 | -6.18747 | 9008 ft | 275 kts | 259° |
| 2026-05-06 15:55 | 53.59345 | -6.21938 | 8700 ft | 273 kts | 259° |
| 2026-05-06 15:55 | 53.58992 | -6.25065 | 8405 ft | 271 kts | 259° |
| 2026-05-06 15:56 | 53.58640 | -6.28171 | 8112 ft | 269 kts | 259° |
| 2026-05-06 15:56 | 53.58290 | -6.31258 | 7825 ft | 267 kts | 258° |
| 2026-05-06 15:56 | 53.57946 | -6.34280 | 7551 ft | 266 kts | 258° |
| 2026-05-06 15:56 | 53.57599 | -6.37322 | 7261 ft | 264 kts | 258° |
| 2026-05-06 15:57 | 53.57253 | -6.40344 | 6966 ft | 261 kts | 258° |
| 2026-05-06 15:57 | 53.56913 | -6.43311 | 6674 ft | 255 kts | 258° |
| 2026-05-06 15:57 | 53.56580 | -6.46212 | 6408 ft | 250 kts | 258° |
| 2026-05-06 15:57 | 53.56252 | -6.49057 | 6120 ft | 246 kts | 258° |
| 2026-05-06 15:58 | 53.55931 | -6.51846 | 5841 ft | 240 kts | 258° |
| 2026-05-06 15:58 | 53.55618 | -6.54554 | 5717 ft | 230 kts | 258° |
| 2026-05-06 15:58 | 53.55316 | -6.57165 | 5609 ft | 226 kts | 258° |
| 2026-05-06 15:58 | 53.55015 | -6.59749 | 5523 ft | 224 kts | 258° |
| 2026-05-06 15:59 | 53.54715 | -6.62321 | 5431 ft | 224 kts | 258° |
| 2026-05-06 15:59 | 53.54286 | -6.64819 | 5302 ft | 222 kts | 239° |
| 2026-05-06 15:59 | 53.53183 | -6.66559 | 5128 ft | 220 kts | 207° |
| 2026-05-06 15:59 | 53.51733 | -6.67310 | 4934 ft | 220 kts | 189° |
| 2026-05-06 16:00 | 53.50713 | -6.67464 | 4884 ft | 218 kts | 187° |
| 2026-05-06 16:00 | 53.49182 | -6.67678 | 4701 ft | 223 kts | 187° |
| 2026-05-06 16:00 | 53.47646 | -6.67743 | 4440 ft | 226 kts | 171° |
| 2026-05-06 16:00 | 53.46288 | -6.66420 | 4233 ft | 228 kts | 129° |
| 2026-05-06 16:01 | 53.45752 | -6.64019 | 4069 ft | 225 kts | 95° |
| 2026-05-06 16:01 | 53.45647 | -6.61476 | 4003 ft | 210 kts | 97° |
| 2026-05-06 16:01 | 53.45501 | -6.59103 | 3883 ft | 201 kts | 97° |
| 2026-05-06 16:01 | 53.45359 | -6.56782 | 3633 ft | 198 kts | 97° |
| 2026-05-06 16:02 | 53.45224 | -6.54497 | 3378 ft | 196 kts | 97° |
| 2026-05-06 16:02 | 53.45094 | -6.52258 | 3101 ft | 192 kts | 97° |
| 2026-05-06 16:02 | 53.44968 | -6.50074 | 2833 ft | 185 kts | 97° |
| 2026-05-06 16:02 | 53.44847 | -6.47967 | 2579 ft | 178 kts | 98° |
| 2026-05-06 16:03 | 53.44731 | -6.45953 | 2354 ft | 170 kts | 98° |
| 2026-05-06 16:03 | 53.44620 | -6.44011 | 2119 ft | 165 kts | 98° |
| 2026-05-06 16:03 | 53.44511 | -6.42118 | 1890 ft | 161 kts | 97° |
| 2026-05-06 16:03 | 53.44405 | -6.40269 | 1689 ft | 159 kts | 98° |
| 2026-05-06 16:04 | 53.44301 | -6.38424 | 1467 ft | 158 kts | 97° |
| 2026-05-06 16:04 | 53.44199 | -6.36627 | 1261 ft | 151 kts | 97° |
| 2026-05-06 16:04 | 53.44105 | -6.34933 | 1092 ft | 146 kts | 97° |
| 2026-05-06 16:04 | 53.44011 | -6.33248 | 860 ft | 144 kts | 97° |
| 2026-05-06 16:05 | 53.43914 | -6.31559 | 657 ft | 143 kts | 96° |
| 2026-05-06 16:05 | 53.43822 | -6.29917 | 470 ft | 142 kts | 96° |
| 2026-05-06 16:05 | 53.43731 | -6.28273 | 281 ft | 141 kts | 97° |
| 2026-05-06 16:05 | 53.43637 | -6.26692 | 210 ft | 122 kts | 95° |
| 2026-05-06 16:06 | 53.43584 | -6.25650 | 208 ft | 58 kts | 95° |
| 2026-05-06 16:06 | 53.43537 | -6.25261 | 211 ft | 24 kts | 112° |
| 2026-05-06 16:06 | 53.43471 | -6.25059 | 211 ft | 18 kts | 121° |
| 2026-05-06 16:06 | 53.43406 | -6.24876 | 214 ft | 18 kts | 120° |
| 2026-05-06 16:07 | 53.43359 | -6.24690 | 214 ft | 17 kts | 95° |
| 2026-05-06 16:07 | 53.43349 | -6.24500 | 210 ft | 15 kts | 95° |
| 2026-05-06 16:07 | 53.43312 | -6.24406 | 210 ft | 9 kts | 177° |
| 2026-05-06 16:07 | 53.43247 | -6.24411 | 212 ft | 9 kts | 185° |
| 2026-05-06 16:08 | 53.43192 | -6.24451 | 210 ft | 9 kts | 242° |
| 2026-05-06 16:08 | 53.43192 | -6.24555 | 210 ft | 9 kts | 274° |
| 2026-05-06 16:08 | 53.43192 | -6.24655 | 210 ft | 9 kts | 250° |
| 2026-05-06 16:08 | 53.43185 | -6.24795 | 210 ft | 17 kts | 276° |
| 2026-05-06 16:09 | 53.43197 | -6.25008 | 210 ft | 18 kts | 275° |
| 2026-05-06 16:09 | 53.43209 | -6.25217 | 210 ft | 18 kts | 276° |
| 2026-05-06 16:09 | 53.43180 | -6.25389 | 219 ft | 11 kts | 217° |
| 2026-05-06 16:09 | 53.43115 | -6.25369 | 211 ft | 10 kts | 156° |
| 2026-05-06 16:10 | 53.43080 | -6.25337 | 215 ft | 3 kts | 129° |
| 2026-05-06 16:10 | 53.43083 | -6.25285 | 210 ft | 8 kts | 72° |
| 2026-05-06 16:10 | 53.43099 | -6.25221 | 217 ft | 1 kts | 66° |
| 2026-05-06 16:10 | 53.43100 | -6.25220 | 216 ft | 0 kts | 66° |